createdAt,value
2018-05-14T00:01:26.910Z,11.12
2018-05-14T00:03:55.329Z,10.43
2018-05-14T00:06:22.809Z,10.17
2018-05-14T00:08:50.435Z,10.65
2018-05-14T00:11:17.917Z,11.05
2018-05-14T00:13:45.401Z,10.90
2018-05-14T00:16:17.956Z,10.67
2018-05-14T00:18:45.458Z,11.70
2018-05-14T00:21:12.925Z,11.00
2018-05-14T00:23:40.427Z,11.57
2018-05-14T00:26:07.936Z,9.87
2018-05-14T00:28:35.425Z,10.68
2018-05-14T00:31:03.836Z,10.15
2018-05-14T00:33:35.170Z,10.50
2018-05-14T00:36:05.101Z,10.63
2018-05-14T00:38:32.602Z,11.07
2018-05-14T00:41:00.119Z,11.10
2018-05-14T00:43:29.263Z,10.20
2018-05-14T00:45:56.768Z,9.70
2018-05-14T00:48:24.273Z,9.80
2018-05-14T00:50:51.769Z,9.50
2018-05-14T00:53:19.306Z,9.43
2018-05-14T00:55:46.785Z,10.23
2018-05-14T00:58:14.258Z,11.13
2018-05-14T01:00:41.774Z,10.68
2018-05-14T01:03:13.261Z,9.47
2018-05-14T01:05:41.033Z,10.00
2018-05-14T01:08:08.493Z,8.77
2018-05-14T01:10:35.989Z,8.57
2018-05-14T01:13:03.485Z,7.40
2018-05-14T01:15:30.938Z,7.40
2018-05-14T01:18:02.016Z,7.12
2018-05-14T01:20:29.495Z,5.80
2018-05-14T01:22:56.968Z,4.50
2018-05-14T01:25:24.438Z,4.80
2018-05-14T01:27:51.884Z,5.47
2018-05-14T01:30:19.389Z,6.07
2018-05-14T01:32:54.856Z,5.10
2018-05-14T01:35:22.543Z,7.18
2018-05-14T01:37:50.041Z,8.00
2018-05-14T01:40:17.730Z,7.00
2018-05-14T01:42:45.230Z,6.68
2018-05-14T01:45:12.686Z,7.70
2018-05-14T01:47:40.143Z,8.03
2018-05-14T01:50:07.657Z,8.40
2018-05-14T01:52:36.724Z,7.60
2018-05-14T01:55:04.235Z,8.38
2018-05-14T01:57:31.861Z,8.57
2018-05-14T01:59:59.417Z,9.13
2018-05-14T02:02:26.877Z,10.50
2018-05-14T02:04:57.710Z,11.23
2018-05-14T02:07:25.448Z,11.87
2018-05-14T02:09:52.946Z,11.05
2018-05-14T02:12:20.412Z,11.07
2018-05-14T02:14:47.903Z,11.43
2018-05-14T02:17:15.380Z,12.07
2018-05-14T02:19:42.926Z,11.83
2018-05-14T02:22:10.387Z,12.13
2018-05-14T02:24:37.930Z,12.80
2018-05-14T02:27:05.402Z,12.80
2018-05-14T02:29:33.794Z,12.57
2018-05-14T02:32:01.292Z,12.60
2018-05-14T02:34:29.555Z,12.40
2018-05-14T02:36:57.020Z,12.98
2018-05-14T02:39:24.520Z,12.35
2018-05-14T02:41:53.655Z,10.83
2018-05-14T02:44:21.095Z,12.80
2018-05-14T02:46:48.593Z,12.27
2018-05-14T02:49:16.824Z,12.68
2018-05-14T02:51:44.303Z,14.57
2018-05-14T02:54:12.583Z,14.02
2018-05-14T02:56:40.057Z,12.90
2018-05-14T02:59:07.527Z,13.98
2018-05-14T03:01:35.025Z,14.40
2018-05-14T03:04:05.622Z,13.90
2018-05-14T03:06:33.114Z,13.93
2018-05-14T03:09:00.588Z,15.18
2018-05-14T03:11:28.075Z,14.15
2018-05-14T03:13:56.380Z,15.57
2018-05-14T03:16:23.862Z,16.57
2018-05-14T03:18:51.321Z,17.10
2018-05-14T03:21:23.463Z,15.00
2018-05-14T03:23:51.381Z,15.68
2018-05-14T03:26:18.955Z,16.03
2018-05-14T03:28:47.191Z,16.90
2018-05-14T03:31:14.675Z,17.35
2018-05-14T03:33:42.168Z,16.40
2018-05-14T03:36:10.338Z,18.37
2018-05-14T03:38:38.680Z,18.33
2018-05-14T03:41:06.068Z,18.80
2018-05-14T03:43:33.529Z,18.63
2018-05-14T03:46:00.985Z,18.93
2018-05-14T03:48:30.182Z,19.00
2018-05-14T03:51:02.118Z,20.87
2018-05-14T03:53:29.888Z,19.90
2018-05-14T03:55:57.375Z,19.85
2018-05-14T03:58:36.801Z,20.10
2018-05-14T04:01:15.098Z,21.23
2018-05-14T04:03:55.312Z,20.40
2018-05-14T04:06:37.580Z,22.73
2018-05-14T04:09:06.136Z,21.27
2018-05-14T04:11:33.654Z,20.92
2018-05-14T04:14:02.356Z,20.30
2018-05-14T04:16:30.050Z,21.10
2018-05-14T04:18:57.943Z,20.63
2018-05-14T04:21:29.034Z,21.55
2018-05-14T04:23:57.285Z,23.02
2018-05-14T04:26:24.796Z,21.90
2018-05-14T04:28:53.054Z,21.73
2018-05-14T04:31:23.253Z,22.23
2018-05-14T04:33:51.304Z,20.44
2018-05-14T04:36:18.779Z,22.08
2018-05-14T04:38:46.500Z,22.08
2018-05-14T04:41:14.251Z,20.83
2018-05-14T04:43:41.707Z,20.73
2018-05-14T04:46:09.211Z,18.50
2018-05-14T04:48:36.714Z,15.60
2018-05-14T04:51:04.180Z,16.13
2018-05-14T04:53:32.432Z,17.10
2018-05-14T04:56:01.137Z,15.55
2018-05-14T04:58:28.695Z,16.53
2018-05-14T05:00:56.921Z,16.40
2018-05-14T05:03:24.893Z,20.03
2018-05-14T05:05:52.372Z,16.53
2018-05-14T05:08:23.526Z,16.57
2018-05-14T05:10:50.989Z,16.57
2018-05-14T05:13:18.456Z,16.27
2018-05-14T05:15:46.701Z,16.00
2018-05-14T05:18:14.446Z,16.90
2018-05-14T05:20:41.955Z,17.92
2018-05-14T05:23:12.831Z,16.43
2018-05-14T05:25:40.302Z,16.53
2018-05-14T05:28:07.802Z,15.97
2018-05-14T05:30:35.261Z,16.60
2018-05-14T05:33:02.728Z,18.10
2018-05-14T05:35:30.250Z,17.50
2018-05-14T05:37:58.663Z,15.73
2018-05-14T05:40:26.997Z,16.90
2018-05-14T05:42:54.477Z,16.57
2018-05-14T05:45:22.002Z,17.95
2018-05-14T05:47:50.236Z,17.60
2018-05-14T05:50:18.572Z,16.73
2018-05-14T05:52:49.309Z,17.65
2018-05-14T05:55:16.798Z,17.90
2018-05-14T05:57:45.087Z,16.58
2018-05-14T06:00:12.994Z,15.80
2018-05-14T06:02:40.687Z,17.10
2018-05-14T06:05:08.164Z,18.43
2018-05-14T06:07:40.731Z,15.93
2018-05-14T06:10:08.221Z,15.90
2018-05-14T06:12:35.687Z,15.50
2018-05-14T06:15:03.263Z,14.13
2018-05-14T06:17:30.793Z,14.43
2018-05-14T06:19:58.283Z,13.10
2018-05-14T06:22:26.031Z,14.90
2018-05-14T06:24:54.166Z,16.07
2018-05-14T06:27:21.636Z,12.75
2018-05-14T06:29:50.127Z,13.23
2018-05-14T06:32:17.607Z,10.53
2018-05-14T06:34:45.090Z,9.95
2018-05-14T06:37:12.543Z,9.55
2018-05-14T06:39:45.679Z,10.27
2018-05-14T06:42:13.423Z,9.27
2018-05-14T06:44:42.419Z,8.45
2018-05-14T06:47:09.892Z,9.90
2018-05-14T06:49:37.446Z,9.87
2018-05-14T06:52:05.210Z,9.23
2018-05-14T06:54:32.667Z,8.70
2018-05-14T06:57:00.500Z,9.82
2018-05-14T06:59:28.005Z,8.52
2018-05-14T07:01:55.809Z,9.68
2018-05-14T07:04:23.330Z,9.95
2018-05-14T07:06:50.638Z,9.80
2018-05-14T07:09:21.915Z,9.43
2018-05-14T07:11:49.902Z,8.90
2018-05-14T07:14:17.379Z,7.67
2018-05-14T07:16:44.869Z,9.13
2018-05-14T07:19:12.385Z,8.25
2018-05-14T07:21:39.793Z,8.27
2018-05-14T07:24:14.943Z,8.43
2018-05-14T07:26:42.403Z,8.60
2018-05-14T07:29:09.916Z,7.93
2018-05-14T07:31:37.424Z,8.10
2018-05-14T07:34:05.698Z,9.27
2018-05-14T07:36:33.157Z,8.40
2018-05-14T07:39:04.297Z,8.00
2018-05-14T07:41:31.775Z,9.13
2018-05-14T07:43:59.271Z,8.23
2018-05-14T07:46:26.734Z,6.93
2018-05-14T07:48:54.538Z,7.27
2018-05-14T07:51:22.020Z,9.05
2018-05-14T07:53:49.500Z,7.60
2018-05-14T07:56:16.972Z,7.30
2018-05-14T07:58:44.475Z,8.00
2018-05-14T08:01:13.635Z,6.37
2018-05-14T08:03:41.138Z,5.87
2018-05-14T08:06:09.441Z,7.23
2018-05-14T08:08:37.797Z,6.40
2018-05-14T08:11:05.296Z,7.60
2018-05-14T08:13:32.753Z,6.30
2018-05-14T08:16:00.255Z,6.73
2018-05-14T08:18:27.753Z,6.60
2018-05-14T08:20:55.220Z,6.50
2018-05-14T08:23:22.723Z,7.13
2018-05-14T08:25:50.211Z,6.43
2018-05-14T08:28:17.737Z,6.65
2018-05-14T08:30:46.092Z,6.53
2018-05-14T08:33:13.549Z,7.50
2018-05-14T08:35:41.024Z,6.67
2018-05-14T08:38:08.526Z,7.40
2018-05-14T08:40:35.986Z,7.35
2018-05-14T08:43:03.497Z,6.40
2018-05-14T08:45:30.955Z,6.50
2018-05-14T08:47:58.442Z,6.80
2018-05-14T08:50:25.930Z,6.35
2018-05-14T08:52:54.095Z,5.74
2018-05-14T08:55:21.559Z,5.93
2018-05-14T08:57:49.268Z,7.37
2018-05-14T09:00:16.747Z,6.70
2018-05-14T09:02:44.237Z,5.67
2018-05-14T09:05:11.947Z,7.13
2018-05-14T09:07:39.454Z,6.55
2018-05-14T09:10:07.038Z,5.22
2018-05-14T09:12:34.612Z,5.23
2018-05-14T09:15:02.840Z,6.05
2018-05-14T09:17:30.356Z,5.20
2018-05-14T09:19:57.864Z,4.40
2018-05-14T09:22:26.160Z,4.72
2018-05-14T09:24:53.663Z,5.17
2018-05-14T09:27:23.504Z,5.36
2018-05-14T09:29:50.970Z,4.65
2018-05-14T09:32:18.793Z,4.27
2018-05-14T09:34:46.574Z,4.47
2018-05-14T09:37:14.349Z,5.18
2018-05-14T09:39:41.815Z,4.53
2018-05-14T09:42:09.405Z,4.40
2018-05-14T09:44:37.037Z,3.67
2018-05-14T09:47:05.383Z,4.60
2018-05-14T09:49:32.936Z,4.33
2018-05-14T09:52:00.437Z,4.90
2018-05-14T09:54:27.925Z,3.83
2018-05-14T09:56:58.476Z,3.70
2018-05-14T09:59:25.943Z,4.37
2018-05-14T10:01:53.446Z,4.20
2018-05-14T10:04:21.070Z,4.68
2018-05-14T10:06:49.528Z,4.85
2018-05-14T10:09:17.007Z,4.60
2018-05-14T10:11:55.001Z,4.33
2018-05-14T10:14:22.476Z,4.60
2018-05-14T10:16:51.215Z,4.03
2018-05-14T10:19:18.712Z,4.97
2018-05-14T10:21:46.178Z,4.80
2018-05-14T10:24:13.628Z,4.80
2018-05-14T10:26:48.044Z,5.17
2018-05-14T10:29:15.567Z,4.60
2018-05-14T10:31:43.106Z,4.67
2018-05-14T10:34:10.570Z,4.00
2018-05-14T10:36:38.065Z,5.70
2018-05-14T10:39:05.535Z,4.78
2018-05-14T10:41:36.463Z,4.70
2018-05-14T10:44:04.841Z,4.65
2018-05-14T10:46:32.330Z,4.68
2018-05-14T10:48:59.785Z,4.13
2018-05-14T10:51:27.283Z,4.67
2018-05-14T10:53:54.740Z,5.80
2018-05-14T10:56:22.196Z,5.10
2018-05-14T10:58:54.599Z,3.80
2018-05-14T11:01:22.128Z,4.22
2018-05-14T11:03:49.624Z,4.30
2018-05-14T11:06:17.089Z,3.37
2018-05-14T11:08:44.641Z,3.22
2018-05-14T11:11:12.097Z,3.83
2018-05-14T11:13:43.556Z,3.43
2018-05-14T11:16:11.108Z,4.50
2018-05-14T11:18:38.635Z,4.43
2018-05-14T11:21:06.093Z,3.73
2018-05-14T11:23:33.583Z,4.30
2018-05-14T11:26:01.860Z,4.00
2018-05-14T11:28:29.317Z,3.20
2018-05-14T11:30:58.459Z,3.50
2018-05-14T11:33:25.987Z,3.80
2018-05-14T11:35:53.418Z,4.32
2018-05-14T11:38:21.802Z,3.60
2018-05-14T11:40:49.279Z,4.20
2018-05-14T11:43:17.151Z,4.68
2018-05-14T11:45:44.680Z,4.80
2018-05-14T11:48:12.260Z,4.40
2018-05-14T11:50:39.953Z,4.20
2018-05-14T11:53:07.443Z,4.62
2018-05-14T11:55:35.030Z,5.00
2018-05-14T11:58:02.537Z,4.82
2018-05-14T12:00:30.938Z,5.20
2018-05-14T12:02:58.542Z,5.40
2018-05-14T12:05:26.681Z,5.27
2018-05-14T12:07:54.151Z,4.70
2018-05-14T12:10:22.366Z,5.50
2018-05-14T12:12:50.701Z,5.43
2018-05-14T12:15:18.180Z,4.80
2018-05-14T12:17:46.412Z,5.20
2018-05-14T12:20:14.808Z,4.90
2018-05-14T12:22:42.301Z,4.63
2018-05-14T12:25:09.791Z,4.77
2018-05-14T12:27:37.253Z,5.40
2018-05-14T12:30:04.854Z,5.90
2018-05-14T12:32:32.421Z,6.32
2018-05-14T12:34:59.900Z,5.75
2018-05-14T12:37:28.287Z,5.17
2018-05-14T12:39:55.785Z,6.75
2018-05-14T12:42:23.246Z,4.43
2018-05-14T12:44:50.696Z,4.87
2018-05-14T12:47:18.173Z,4.68
2018-05-14T12:49:45.634Z,3.63
2018-05-14T12:52:13.101Z,4.47
2018-05-14T12:54:40.664Z,4.70
2018-05-14T12:57:08.136Z,4.50
2018-05-14T12:59:37.395Z,3.50
2018-05-14T13:02:04.926Z,3.10
2018-05-14T13:04:32.363Z,3.40
2018-05-14T13:06:59.923Z,3.20
2018-05-14T13:09:27.368Z,2.28
2018-05-14T13:11:55.768Z,3.70
2018-05-14T13:14:23.227Z,3.00
2018-05-14T13:16:50.714Z,2.83
2018-05-14T13:19:18.209Z,3.10
2018-05-14T13:21:45.660Z,3.03
2018-05-14T13:24:13.108Z,3.30
2018-05-14T13:26:40.593Z,2.80
2018-05-14T13:29:08.045Z,3.03
2018-05-14T13:31:35.543Z,3.50
2018-05-14T13:34:04.881Z,2.55
2018-05-14T13:36:32.342Z,3.13
2018-05-14T13:39:00.610Z,2.60
2018-05-14T13:41:28.813Z,2.50
2018-05-14T13:43:56.285Z,2.70
2018-05-14T13:46:23.826Z,3.50
2018-05-14T13:48:52.065Z,2.75
2018-05-14T13:51:19.521Z,2.90
2018-05-14T13:53:47.739Z,2.60
2018-05-14T13:56:15.211Z,3.45
2018-05-14T13:58:42.743Z,2.60
2018-05-14T14:01:11.526Z,2.70
2018-05-14T14:03:39.741Z,2.60
2018-05-14T14:06:08.255Z,3.03
2018-05-14T14:08:35.712Z,2.45
2018-05-14T14:11:03.208Z,2.10
2018-05-14T14:13:31.505Z,2.40
2018-05-14T14:15:58.988Z,3.00
2018-05-14T14:18:26.500Z,2.30
2018-05-14T14:20:54.168Z,3.03
2018-05-14T14:23:21.671Z,3.13
2018-05-14T14:25:49.108Z,2.70
2018-05-14T14:28:16.695Z,3.10
2018-05-14T14:30:48.891Z,2.40
2018-05-14T14:33:16.337Z,2.57
2018-05-14T14:35:43.899Z,2.20
2018-05-14T14:38:11.386Z,2.77
2018-05-14T14:40:38.873Z,3.80
2018-05-14T14:43:06.350Z,4.70
2018-05-14T14:45:37.013Z,2.77
2018-05-14T14:48:06.053Z,3.53
2018-05-14T14:50:33.651Z,3.17
2018-05-14T14:53:01.132Z,2.90
2018-05-14T14:55:28.608Z,2.77
2018-05-14T14:57:56.089Z,4.83
2018-05-14T15:00:23.611Z,4.60
2018-05-14T15:02:59.145Z,5.40
2018-05-14T15:05:26.661Z,4.93
2018-05-14T15:07:55.909Z,5.07
2018-05-14T15:10:24.163Z,4.90
2018-05-14T15:12:51.731Z,4.90
2018-05-14T15:15:19.237Z,5.55
2018-05-14T15:17:46.870Z,6.07
2018-05-14T15:20:15.113Z,5.40
2018-05-14T15:22:42.593Z,5.07
2018-05-14T15:25:10.039Z,5.65
2018-05-14T15:27:37.551Z,5.53
2018-05-14T15:30:05.009Z,6.00
2018-05-14T15:32:36.050Z,6.60
2018-05-14T15:35:04.203Z,4.90
2018-05-14T15:37:31.839Z,6.37
2018-05-14T15:39:59.393Z,5.60
2018-05-14T15:42:26.900Z,6.45
2018-05-14T15:44:55.113Z,6.30
2018-05-14T15:47:23.362Z,7.13
2018-05-14T15:49:50.854Z,4.93
2018-05-14T15:52:18.354Z,5.10
2018-05-14T15:54:45.848Z,5.47
2018-05-14T15:57:13.340Z,6.10
2018-05-14T15:59:40.913Z,6.07
2018-05-14T16:02:12.093Z,5.63
2018-05-14T16:04:39.568Z,5.63
2018-05-14T16:07:08.164Z,6.05
2018-05-14T16:09:38.141Z,5.20
2018-05-14T16:12:05.671Z,6.50
2018-05-14T16:14:33.160Z,5.30
2018-05-14T16:17:05.031Z,6.33
2018-05-14T16:19:32.488Z,5.40
2018-05-14T16:22:00.065Z,5.80
2018-05-14T16:24:27.604Z,5.67
2018-05-14T16:26:55.074Z,5.83
2018-05-14T16:29:22.540Z,5.70
2018-05-14T16:31:50.066Z,5.60
2018-05-14T16:34:17.569Z,6.43
2018-05-14T16:36:45.061Z,8.20
2018-05-14T16:39:12.549Z,6.97
2018-05-14T16:41:40.961Z,7.57
2018-05-14T16:44:08.440Z,6.50
2018-05-14T16:46:36.224Z,5.80
2018-05-14T16:49:03.740Z,5.33
2018-05-14T16:51:31.236Z,5.33
2018-05-14T16:53:58.696Z,7.00
2018-05-14T16:56:26.173Z,8.07
2018-05-14T16:58:54.487Z,7.30
2018-05-14T17:01:22.011Z,6.15
2018-05-14T17:03:56.981Z,5.00
2018-05-14T17:06:24.465Z,5.65
2018-05-14T17:08:52.732Z,5.57
2018-05-14T17:11:20.185Z,5.03
2018-05-14T17:13:47.649Z,6.03
2018-05-14T17:16:15.925Z,5.70
2018-05-14T17:18:43.919Z,5.22
2018-05-14T17:21:11.439Z,6.68
2018-05-14T17:23:39.889Z,6.08
2018-05-14T17:26:07.536Z,5.67
2018-05-14T17:28:35.075Z,6.50
2018-05-14T17:31:02.582Z,6.55
2018-05-14T17:33:30.069Z,7.03
2018-05-14T17:35:58.515Z,5.45
2018-05-14T17:38:26.008Z,7.07
2018-05-14T17:40:53.537Z,7.10
2018-05-14T17:43:21.033Z,5.85
2018-05-14T17:45:48.533Z,5.87
2018-05-14T17:48:15.992Z,6.10
2018-05-14T17:50:48.217Z,6.63
2018-05-14T17:53:15.677Z,8.63
2018-05-14T17:55:43.173Z,7.73
2018-05-14T17:58:10.657Z,7.20
2018-05-14T18:00:38.141Z,8.13
2018-05-14T18:03:05.668Z,6.50
2018-05-14T18:05:33.146Z,3.78
2018-05-14T18:08:02.344Z,4.20
2018-05-14T18:10:30.171Z,4.15
2018-05-14T18:12:57.679Z,4.40
2018-05-14T18:15:25.127Z,4.50
2018-05-14T18:17:52.662Z,4.07
2018-05-14T18:20:26.086Z,4.87
2018-05-14T18:22:53.604Z,3.30
2018-05-14T18:25:27.725Z,5.00
2018-05-14T18:28:01.062Z,5.90
2018-05-14T18:30:28.524Z,5.10
2018-05-14T18:33:02.640Z,6.10
2018-05-14T18:35:35.847Z,6.78
2018-05-14T18:38:05.084Z,8.00
2018-05-14T18:40:32.556Z,5.37
2018-05-14T18:43:00.077Z,7.03
2018-05-14T18:45:27.591Z,7.40
2018-05-14T18:47:55.178Z,6.50
2018-05-14T18:50:24.457Z,7.93
2018-05-14T18:52:51.969Z,6.90
2018-05-14T18:55:19.487Z,7.07
2018-05-14T18:57:47.029Z,6.37
2018-05-14T19:00:14.551Z,6.72
2018-05-14T19:02:42.208Z,6.60
2018-05-14T19:05:09.698Z,5.43
2018-05-14T19:07:37.689Z,6.80
2018-05-14T19:10:10.892Z,7.83
2018-05-14T19:12:38.418Z,6.23
2018-05-14T19:15:11.825Z,5.70
2018-05-14T19:17:44.990Z,5.70
2018-05-14T19:20:15.986Z,5.23
2018-05-14T19:22:49.120Z,5.47
2018-05-14T19:25:16.726Z,8.00
2018-05-14T19:27:51.562Z,4.68
2018-05-14T19:30:19.858Z,5.03
2018-05-14T19:32:47.348Z,6.37
2018-05-14T19:35:31.611Z,5.23
2018-05-14T19:37:59.913Z,6.00
2018-05-14T19:40:33.132Z,5.90
2018-05-14T19:43:00.618Z,5.57
2018-05-14T19:45:29.095Z,5.45
2018-05-14T19:47:56.601Z,5.93
2018-05-14T19:50:24.184Z,5.40
2018-05-14T19:52:51.811Z,6.03
2018-05-14T19:55:19.327Z,6.20
2018-05-14T19:57:46.849Z,5.85
2018-05-14T20:00:14.654Z,6.17
2018-05-14T20:02:42.198Z,6.32
2018-05-14T20:05:09.689Z,6.50
2018-05-14T20:07:37.953Z,6.28
2018-05-14T20:10:05.506Z,5.93
2018-05-14T20:12:33.042Z,5.87
2018-05-14T20:15:00.608Z,6.77
2018-05-14T20:17:28.110Z,5.93
2018-05-14T20:19:55.620Z,7.17
2018-05-14T20:22:23.345Z,5.83
2018-05-14T20:24:51.420Z,5.93
2018-05-14T20:27:20.093Z,6.40
2018-05-14T20:29:47.613Z,6.67
2018-05-14T20:32:15.180Z,6.40
2018-05-14T20:34:42.833Z,6.10
2018-05-14T20:37:14.707Z,6.75
2018-05-14T20:39:42.194Z,6.13
2018-05-14T20:42:09.752Z,6.05
2018-05-14T20:44:37.294Z,5.50
2018-05-14T20:47:04.881Z,5.30
2018-05-14T20:49:32.675Z,5.73
2018-05-14T20:52:05.189Z,6.33
2018-05-14T20:54:32.685Z,6.10
2018-05-14T20:57:00.389Z,6.28
2018-05-14T20:59:27.890Z,7.23
2018-05-14T21:01:55.732Z,7.06
2018-05-14T21:04:23.313Z,7.20
2018-05-14T21:06:50.774Z,8.50
2018-05-14T21:09:18.256Z,6.97
2018-05-14T21:11:45.737Z,7.93
2018-05-14T21:14:13.217Z,8.10
2018-05-14T21:16:40.703Z,7.20
2018-05-14T21:19:08.142Z,8.17
2018-05-14T21:21:35.613Z,8.77
2018-05-14T21:24:03.600Z,8.25
2018-05-14T21:26:31.100Z,7.93
2018-05-14T21:28:58.556Z,7.27
2018-05-14T21:31:26.016Z,7.57
2018-05-14T21:33:53.729Z,7.25
2018-05-14T21:36:21.186Z,6.70
2018-05-14T21:38:48.640Z,6.90
2018-05-14T21:41:17.827Z,8.03
2018-05-14T21:43:45.298Z,6.50
2018-05-14T21:46:12.869Z,7.17
2018-05-14T21:48:40.371Z,6.50
2018-05-14T21:51:07.843Z,6.53
2018-05-14T21:53:39.845Z,5.87
2018-05-14T21:56:07.298Z,7.07
2018-05-14T21:58:34.795Z,6.63
2018-05-14T22:01:02.262Z,7.23
2018-05-14T22:03:29.757Z,7.20
2018-05-14T22:05:58.041Z,6.10
2018-05-14T22:08:29.396Z,6.05
2018-05-14T22:10:56.882Z,6.90
2018-05-14T22:13:24.351Z,7.10
2018-05-14T22:15:51.808Z,7.30
2018-05-14T22:18:19.357Z,7.25
2018-05-14T22:20:46.793Z,6.32
2018-05-14T22:23:14.332Z,7.30
2018-05-14T22:25:45.572Z,5.90
2018-05-14T22:28:13.040Z,6.47
2018-05-14T22:30:40.511Z,6.27
2018-05-14T22:33:08.211Z,5.68
2018-05-14T22:35:35.672Z,6.20
2018-05-14T22:38:03.140Z,5.05
2018-05-14T22:40:34.709Z,5.87
2018-05-14T22:43:02.168Z,6.40
2018-05-14T22:45:30.412Z,4.78
2018-05-14T22:47:57.891Z,6.60
2018-05-14T22:50:25.460Z,5.80
2018-05-14T22:52:52.927Z,5.90
2018-05-14T22:55:24.855Z,6.67
2018-05-14T22:57:52.293Z,5.87
2018-05-14T23:00:30.676Z,6.30
2018-05-14T23:02:58.178Z,6.00
2018-05-14T23:07:59.677Z,5.80
2018-05-14T23:10:31.552Z,5.73
2018-05-14T23:12:59.024Z,6.93
2018-05-14T23:15:26.777Z,6.20
2018-05-14T23:17:54.343Z,5.47
2018-05-14T23:20:21.861Z,6.18
2018-05-14T23:22:49.320Z,6.03
2018-05-14T23:25:20.723Z,6.93
2018-05-14T23:27:48.176Z,6.07
2018-05-14T23:30:15.964Z,5.80
2018-05-14T23:32:43.420Z,5.23
2018-05-14T23:35:10.916Z,6.70
2018-05-14T23:37:38.403Z,5.83
2018-05-14T23:40:14.716Z,5.80
2018-05-14T23:42:42.169Z,6.80
2018-05-14T23:45:09.657Z,6.53
2018-05-14T23:47:37.144Z,5.87
2018-05-14T23:50:06.689Z,5.33
2018-05-14T23:52:34.173Z,5.70
2018-05-14T23:55:05.940Z,7.53
2018-05-14T23:57:33.413Z,6.70
